sensor_id;sensor_type;location;lat;lon;timestamp;P1;durP1;ratioP1;P2;durP2;ratioP2
14019;SDS011;7085;51.428;6.796;2022-12-07T00:00:45;9.33;;;8.23;;
14019;SDS011;7085;51.428;6.796;2022-12-07T00:03:14;11.53;;;7.90;;
14019;SDS011;7085;51.428;6.796;2022-12-07T00:05:41;12.13;;;8.90;;
14019;SDS011;7085;51.428;6.796;2022-12-07T00:08:08;12.07;;;8.90;;
14019;SDS011;7085;51.428;6.796;2022-12-07T00:10:35;8.80;;;7.80;;
14019;SDS011;7085;51.428;6.796;2022-12-07T00:13:02;11.60;;;8.93;;
14019;SDS011;7085;51.428;6.796;2022-12-07T00:15:29;10.80;;;8.27;;
14019;SDS011;7085;51.428;6.796;2022-12-07T00:17:56;10.20;;;8.73;;
14019;SDS011;7085;51.428;6.796;2022-12-07T00:20:24;11.17;;;9.30;;
14019;SDS011;7085;51.428;6.796;2022-12-07T00:22:52;14.07;;;10.17;;
14019;SDS011;7085;51.428;6.796;2022-12-07T00:25:19;13.43;;;10.73;;
14019;SDS011;7085;51.428;6.796;2022-12-07T00:27:46;10.30;;;8.43;;
14019;SDS011;7085;51.428;6.796;2022-12-07T00:30:13;11.93;;;9.77;;
14019;SDS011;7085;51.428;6.796;2022-12-07T00:32:40;15.20;;;9.60;;
14019;SDS011;7085;51.428;6.796;2022-12-07T00:35:07;10.77;;;9.33;;
14019;SDS011;7085;51.428;6.796;2022-12-07T00:37:36;13.10;;;9.27;;
14019;SDS011;7085;51.428;6.796;2022-12-07T00:40:03;14.73;;;9.97;;
14019;SDS011;7085;51.428;6.796;2022-12-07T00:42:30;14.33;;;9.33;;
14019;SDS011;7085;51.428;6.796;2022-12-07T00:44:57;10.47;;;9.03;;
14019;SDS011;7085;51.428;6.796;2022-12-07T00:47:24;12.90;;;10.50;;
14019;SDS011;7085;51.428;6.796;2022-12-07T00:49:51;11.80;;;8.53;;
14019;SDS011;7085;51.428;6.796;2022-12-07T00:52:18;11.00;;;9.90;;
14019;SDS011;7085;51.428;6.796;2022-12-07T00:54:47;14.23;;;11.10;;
14019;SDS011;7085;51.428;6.796;2022-12-07T00:57:14;12.90;;;9.90;;
14019;SDS011;7085;51.428;6.796;2022-12-07T00:59:41;13.00;;;10.00;;
14019;SDS011;7085;51.428;6.796;2022-12-07T01:02:08;14.07;;;10.30;;
14019;SDS011;7085;51.428;6.796;2022-12-07T01:04:35;12.47;;;9.57;;
14019;SDS011;7085;51.428;6.796;2022-12-07T01:07:02;17.87;;;9.87;;
14019;SDS011;7085;51.428;6.796;2022-12-07T01:09:29;11.03;;;9.83;;
14019;SDS011;7085;51.428;6.796;2022-12-07T01:11:57;11.80;;;10.20;;
14019;SDS011;7085;51.428;6.796;2022-12-07T01:14:24;13.23;;;9.83;;
14019;SDS011;7085;51.428;6.796;2022-12-07T01:16:51;12.03;;;10.23;;
14019;SDS011;7085;51.428;6.796;2022-12-07T01:19:18;12.00;;;10.37;;
14019;SDS011;7085;51.428;6.796;2022-12-07T01:21:45;11.07;;;9.87;;
14019;SDS011;7085;51.428;6.796;2022-12-07T01:24:12;12.27;;;10.57;;
14019;SDS011;7085;51.428;6.796;2022-12-07T01:26:39;13.37;;;9.87;;
14019;SDS011;7085;51.428;6.796;2022-12-07T01:29:08;13.07;;;9.87;;
14019;SDS011;7085;51.428;6.796;2022-12-07T01:31:35;10.47;;;9.33;;
14019;SDS011;7085;51.428;6.796;2022-12-07T01:34:02;14.47;;;10.43;;
14019;SDS011;7085;51.428;6.796;2022-12-07T01:36:30;12.23;;;9.33;;
14019;SDS011;7085;51.428;6.796;2022-12-07T01:38:57;12.43;;;9.47;;
14019;SDS011;7085;51.428;6.796;2022-12-07T01:41:25;13.80;;;10.30;;
14019;SDS011;7085;51.428;6.796;2022-12-07T01:46:39;10.63;;;9.40;;
14019;SDS011;7085;51.428;6.796;2022-12-07T01:49:08;11.97;;;9.93;;
14019;SDS011;7085;51.428;6.796;2022-12-07T01:51:35;12.20;;;9.63;;
14019;SDS011;7085;51.428;6.796;2022-12-07T01:54:04;9.67;;;8.67;;
14019;SDS011;7085;51.428;6.796;2022-12-07T01:56:31;14.30;;;10.13;;
14019;SDS011;7085;51.428;6.796;2022-12-07T01:58:59;12.67;;;9.83;;
14019;SDS011;7085;51.428;6.796;2022-12-07T02:01:27;11.83;;;9.17;;
14019;SDS011;7085;51.428;6.796;2022-12-07T02:03:55;10.50;;;9.17;;
14019;SDS011;7085;51.428;6.796;2022-12-07T02:06:23;11.57;;;9.67;;
14019;SDS011;7085;51.428;6.796;2022-12-07T02:08:51;11.37;;;9.47;;
14019;SDS011;7085;51.428;6.796;2022-12-07T02:11:18;10.90;;;9.57;;
14019;SDS011;7085;51.428;6.796;2022-12-07T02:13:45;10.90;;;9.40;;
14019;SDS011;7085;51.428;6.796;2022-12-07T02:16:15;12.03;;;10.17;;
14019;SDS011;7085;51.428;6.796;2022-12-07T02:18:51;12.17;;;9.33;;
14019;SDS011;7085;51.428;6.796;2022-12-07T02:21:26;12.90;;;9.73;;
14019;SDS011;7085;51.428;6.796;2022-12-07T02:24:10;10.77;;;9.67;;
14019;SDS011;7085;51.428;6.796;2022-12-07T02:26:53;12.37;;;9.60;;
14019;SDS011;7085;51.428;6.796;2022-12-07T02:29:24;12.23;;;9.90;;
14019;SDS011;7085;51.428;6.796;2022-12-07T02:31:55;19.90;;;9.03;;
14019;SDS011;7085;51.428;6.796;2022-12-07T02:34:26;13.63;;;9.53;;
14019;SDS011;7085;51.428;6.796;2022-12-07T02:36:55;15.57;;;10.50;;
14019;SDS011;7085;51.428;6.796;2022-12-07T02:39:25;12.47;;;10.10;;
14019;SDS011;7085;51.428;6.796;2022-12-07T02:41:55;16.30;;;8.87;;
14019;SDS011;7085;51.428;6.796;2022-12-07T02:44:26;11.57;;;10.37;;
14019;SDS011;7085;51.428;6.796;2022-12-07T02:46:55;10.67;;;9.03;;
14019;SDS011;7085;51.428;6.796;2022-12-07T02:49:22;13.13;;;9.77;;
14019;SDS011;7085;51.428;6.796;2022-12-07T02:51:50;14.30;;;11.07;;
14019;SDS011;7085;51.428;6.796;2022-12-07T02:54:20;18.10;;;10.40;;
14019;SDS011;7085;51.428;6.796;2022-12-07T02:56:48;11.40;;;9.17;;
14019;SDS011;7085;51.428;6.796;2022-12-07T02:59:17;14.43;;;9.63;;
14019;SDS011;7085;51.428;6.796;2022-12-07T03:01:50;11.30;;;8.93;;
14019;SDS011;7085;51.428;6.796;2022-12-07T03:04:26;14.13;;;10.03;;
14019;SDS011;7085;51.428;6.796;2022-12-07T03:06:58;10.10;;;9.13;;
14019;SDS011;7085;51.428;6.796;2022-12-07T03:09:27;12.27;;;9.90;;
14019;SDS011;7085;51.428;6.796;2022-12-07T03:12:00;11.23;;;9.03;;
14019;SDS011;7085;51.428;6.796;2022-12-07T03:14:29;11.73;;;9.40;;
14019;SDS011;7085;51.428;6.796;2022-12-07T03:17:00;9.63;;;8.60;;
14019;SDS011;7085;51.428;6.796;2022-12-07T03:19:29;13.90;;;8.73;;
14019;SDS011;7085;51.428;6.796;2022-12-07T03:22:00;11.00;;;8.97;;
14019;SDS011;7085;51.428;6.796;2022-12-07T03:24:27;12.47;;;9.33;;
14019;SDS011;7085;51.428;6.796;2022-12-07T03:26:57;15.97;;;10.53;;
14019;SDS011;7085;51.428;6.796;2022-12-07T03:29:27;12.37;;;9.73;;
14019;SDS011;7085;51.428;6.796;2022-12-07T03:31:55;13.30;;;9.30;;
14019;SDS011;7085;51.428;6.796;2022-12-07T03:34:27;13.43;;;9.60;;
14019;SDS011;7085;51.428;6.796;2022-12-07T03:36:57;11.83;;;9.53;;
14019;SDS011;7085;51.428;6.796;2022-12-07T03:39:26;12.63;;;9.57;;
14019;SDS011;7085;51.428;6.796;2022-12-07T03:41:55;10.27;;;9.07;;
14019;SDS011;7085;51.428;6.796;2022-12-07T03:44:23;10.87;;;9.20;;
14019;SDS011;7085;51.428;6.796;2022-12-07T03:46:51;12.30;;;9.57;;
14019;SDS011;7085;51.428;6.796;2022-12-07T03:49:22;12.37;;;9.80;;
14019;SDS011;7085;51.428;6.796;2022-12-07T03:51:54;11.27;;;9.60;;
14019;SDS011;7085;51.428;6.796;2022-12-07T03:54:23;11.60;;;8.70;;
14019;SDS011;7085;51.428;6.796;2022-12-07T03:56:51;10.77;;;9.70;;
14019;SDS011;7085;51.428;6.796;2022-12-07T03:59:18;11.87;;;9.50;;
14019;SDS011;7085;51.428;6.796;2022-12-07T04:01:51;12.40;;;9.50;;
14019;SDS011;7085;51.428;6.796;2022-12-07T04:04:19;14.03;;;9.40;;
14019;SDS011;7085;51.428;6.796;2022-12-07T04:06:46;15.07;;;9.57;;
14019;SDS011;7085;51.428;6.796;2022-12-07T04:09:14;12.87;;;9.87;;
14019;SDS011;7085;51.428;6.796;2022-12-07T04:11:41;10.30;;;9.10;;
14019;SDS011;7085;51.428;6.796;2022-12-07T04:14:08;12.53;;;9.37;;
14019;SDS011;7085;51.428;6.796;2022-12-07T04:16:44;12.67;;;9.80;;
14019;SDS011;7085;51.428;6.796;2022-12-07T04:19:11;12.47;;;9.13;;
14019;SDS011;7085;51.428;6.796;2022-12-07T04:21:38;11.03;;;8.83;;
14019;SDS011;7085;51.428;6.796;2022-12-07T04:24:06;12.57;;;8.80;;
14019;SDS011;7085;51.428;6.796;2022-12-07T04:26:34;15.17;;;10.10;;
14019;SDS011;7085;51.428;6.796;2022-12-07T04:29:01;13.97;;;10.50;;
14019;SDS011;7085;51.428;6.796;2022-12-07T04:31:28;10.43;;;9.33;;
14019;SDS011;7085;51.428;6.796;2022-12-07T04:33:55;11.70;;;8.70;;
14019;SDS011;7085;51.428;6.796;2022-12-07T04:36:22;14.33;;;9.77;;
14019;SDS011;7085;51.428;6.796;2022-12-07T04:38:49;14.63;;;9.80;;
14019;SDS011;7085;51.428;6.796;2022-12-07T04:41:17;11.33;;;9.20;;
14019;SDS011;7085;51.428;6.796;2022-12-07T04:43:45;10.10;;;9.03;;
14019;SDS011;7085;51.428;6.796;2022-12-07T04:46:12;12.30;;;9.40;;
14019;SDS011;7085;51.428;6.796;2022-12-07T04:48:39;12.17;;;9.57;;
14019;SDS011;7085;51.428;6.796;2022-12-07T04:51:06;14.07;;;9.17;;
14019;SDS011;7085;51.428;6.796;2022-12-07T04:53:33;13.53;;;8.93;;
14019;SDS011;7085;51.428;6.796;2022-12-07T04:56:00;17.63;;;9.90;;
14019;SDS011;7085;51.428;6.796;2022-12-07T04:58:27;12.80;;;9.43;;
14019;SDS011;7085;51.428;6.796;2022-12-07T05:00:55;13.73;;;9.23;;
14019;SDS011;7085;51.428;6.796;2022-12-07T05:03:22;12.37;;;8.73;;
14019;SDS011;7085;51.428;6.796;2022-12-07T05:05:49;15.30;;;10.10;;
14019;SDS011;7085;51.428;6.796;2022-12-07T05:08:16;14.97;;;8.60;;
14019;SDS011;7085;51.428;6.796;2022-12-07T05:10:43;12.80;;;9.67;;
14019;SDS011;7085;51.428;6.796;2022-12-07T05:13:11;11.27;;;9.43;;
14019;SDS011;7085;51.428;6.796;2022-12-07T05:15:37;14.53;;;9.90;;
14019;SDS011;7085;51.428;6.796;2022-12-07T05:18:06;12.67;;;9.00;;
14019;SDS011;7085;51.428;6.796;2022-12-07T05:20:34;15.67;;;9.43;;
14019;SDS011;7085;51.428;6.796;2022-12-07T05:23:01;15.70;;;10.00;;
14019;SDS011;7085;51.428;6.796;2022-12-07T05:25:28;12.23;;;8.47;;
14019;SDS011;7085;51.428;6.796;2022-12-07T05:27:55;15.10;;;8.60;;
14019;SDS011;7085;51.428;6.796;2022-12-07T05:30:22;14.90;;;8.37;;
14019;SDS011;7085;51.428;6.796;2022-12-07T05:32:49;14.27;;;9.30;;
14019;SDS011;7085;51.428;6.796;2022-12-07T05:35:18;12.87;;;8.03;;
14019;SDS011;7085;51.428;6.796;2022-12-07T05:37:45;11.10;;;8.33;;
14019;SDS011;7085;51.428;6.796;2022-12-07T05:40:12;11.80;;;8.20;;
14019;SDS011;7085;51.428;6.796;2022-12-07T05:42:40;11.27;;;7.87;;
14019;SDS011;7085;51.428;6.796;2022-12-07T05:45:06;11.70;;;8.07;;
14019;SDS011;7085;51.428;6.796;2022-12-07T05:47:33;11.90;;;8.03;;
14019;SDS011;7085;51.428;6.796;2022-12-07T05:50:00;11.20;;;7.70;;
14019;SDS011;7085;51.428;6.796;2022-12-07T05:52:29;12.97;;;8.53;;
14019;SDS011;7085;51.428;6.796;2022-12-07T05:54:56;13.20;;;7.60;;
14019;SDS011;7085;51.428;6.796;2022-12-07T05:57:23;11.20;;;8.43;;
14019;SDS011;7085;51.428;6.796;2022-12-07T05:59:50;12.00;;;8.57;;
14019;SDS011;7085;51.428;6.796;2022-12-07T06:02:16;11.73;;;7.37;;
14019;SDS011;7085;51.428;6.796;2022-12-07T06:04:44;6.97;;;6.27;;
14019;SDS011;7085;51.428;6.796;2022-12-07T06:07:13;11.60;;;7.83;;
14019;SDS011;7085;51.428;6.796;2022-12-07T06:09:41;9.13;;;6.90;;
14019;SDS011;7085;51.428;6.796;2022-12-07T06:12:09;10.10;;;7.47;;
14019;SDS011;7085;51.428;6.796;2022-12-07T06:14:54;7.73;;;6.47;;
14019;SDS011;7085;51.428;6.796;2022-12-07T06:17:21;11.33;;;7.17;;
14019;SDS011;7085;51.428;6.796;2022-12-07T06:19:48;12.10;;;7.80;;
14019;SDS011;7085;51.428;6.796;2022-12-07T06:22:15;11.70;;;7.70;;
14019;SDS011;7085;51.428;6.796;2022-12-07T06:24:43;9.37;;;7.00;;
14019;SDS011;7085;51.428;6.796;2022-12-07T06:27:11;12.10;;;7.07;;
14019;SDS011;7085;51.428;6.796;2022-12-07T06:29:38;13.27;;;7.43;;
14019;SDS011;7085;51.428;6.796;2022-12-07T06:32:05;11.63;;;8.40;;
14019;SDS011;7085;51.428;6.796;2022-12-07T06:34:32;11.73;;;7.83;;
14019;SDS011;7085;51.428;6.796;2022-12-07T06:36:59;10.07;;;7.67;;
14019;SDS011;7085;51.428;6.796;2022-12-07T06:39:26;11.90;;;7.60;;
14019;SDS011;7085;51.428;6.796;2022-12-07T06:41:55;10.60;;;7.60;;
14019;SDS011;7085;51.428;6.796;2022-12-07T06:44:23;10.93;;;7.87;;
14019;SDS011;7085;51.428;6.796;2022-12-07T06:46:50;11.90;;;7.30;;
14019;SDS011;7085;51.428;6.796;2022-12-07T06:49:18;9.73;;;7.93;;
14019;SDS011;7085;51.428;6.796;2022-12-07T06:51:45;13.17;;;7.57;;
14019;SDS011;7085;51.428;6.796;2022-12-07T06:54:13;11.97;;;8.60;;
14019;SDS011;7085;51.428;6.796;2022-12-07T06:56:40;15.43;;;6.93;;
14019;SDS011;7085;51.428;6.796;2022-12-07T06:59:08;10.87;;;6.77;;
14019;SDS011;7085;51.428;6.796;2022-12-07T07:01:36;11.53;;;7.63;;
14019;SDS011;7085;51.428;6.796;2022-12-07T07:04:03;10.50;;;6.47;;
14019;SDS011;7085;51.428;6.796;2022-12-07T07:06:30;9.57;;;6.77;;
14019;SDS011;7085;51.428;6.796;2022-12-07T07:08:57;8.90;;;7.27;;
14019;SDS011;7085;51.428;6.796;2022-12-07T07:11:24;10.57;;;6.90;;
14019;SDS011;7085;51.428;6.796;2022-12-07T07:13:51;9.67;;;6.93;;
14019;SDS011;7085;51.428;6.796;2022-12-07T07:16:23;7.97;;;7.13;;
14019;SDS011;7085;51.428;6.796;2022-12-07T07:18:50;11.13;;;6.77;;
14019;SDS011;7085;51.428;6.796;2022-12-07T07:21:17;8.50;;;6.07;;
14019;SDS011;7085;51.428;6.796;2022-12-07T07:23:44;10.47;;;7.33;;
14019;SDS011;7085;51.428;6.796;2022-12-07T07:26:11;10.87;;;7.03;;
14019;SDS011;7085;51.428;6.796;2022-12-07T07:28:38;9.53;;;7.07;;
14019;SDS011;7085;51.428;6.796;2022-12-07T07:31:05;11.90;;;7.53;;
14019;SDS011;7085;51.428;6.796;2022-12-07T07:33:34;8.50;;;6.97;;
14019;SDS011;7085;51.428;6.796;2022-12-07T07:36:01;9.53;;;8.07;;
14019;SDS011;7085;51.428;6.796;2022-12-07T07:38:28;11.43;;;7.10;;
14019;SDS011;7085;51.428;6.796;2022-12-07T07:40:55;12.90;;;7.67;;
14019;SDS011;7085;51.428;6.796;2022-12-07T07:43:22;7.67;;;6.40;;
14019;SDS011;7085;51.428;6.796;2022-12-07T07:45:49;11.10;;;7.83;;
14019;SDS011;7085;51.428;6.796;2022-12-07T07:48:16;9.90;;;6.53;;
14019;SDS011;7085;51.428;6.796;2022-12-07T07:50:44;9.57;;;7.37;;
14019;SDS011;7085;51.428;6.796;2022-12-07T07:53:11;13.67;;;8.63;;
14019;SDS011;7085;51.428;6.796;2022-12-07T07:55:38;10.30;;;7.33;;
14019;SDS011;7085;51.428;6.796;2022-12-07T07:58:05;11.10;;;7.33;;
14019;SDS011;7085;51.428;6.796;2022-12-07T08:00:32;11.73;;;7.73;;
14019;SDS011;7085;51.428;6.796;2022-12-07T08:03:00;11.67;;;7.10;;
14019;SDS011;7085;51.428;6.796;2022-12-07T08:05:27;12.93;;;6.93;;
14019;SDS011;7085;51.428;6.796;2022-12-07T08:07:55;14.63;;;8.57;;
14019;SDS011;7085;51.428;6.796;2022-12-07T08:10:23;9.77;;;6.87;;
14019;SDS011;7085;51.428;6.796;2022-12-07T08:12:51;11.10;;;6.87;;
14019;SDS011;7085;51.428;6.796;2022-12-07T08:15:38;12.00;;;7.50;;
14019;SDS011;7085;51.428;6.796;2022-12-07T08:18:05;9.67;;;6.13;;
14019;SDS011;7085;51.428;6.796;2022-12-07T08:20:32;8.20;;;6.87;;
14019;SDS011;7085;51.428;6.796;2022-12-07T08:23:01;10.17;;;7.07;;
14019;SDS011;7085;51.428;6.796;2022-12-07T08:25:28;8.07;;;6.43;;
14019;SDS011;7085;51.428;6.796;2022-12-07T08:27:55;10.10;;;6.30;;
14019;SDS011;7085;51.428;6.796;2022-12-07T08:30:23;9.33;;;7.20;;
14019;SDS011;7085;51.428;6.796;2022-12-07T08:32:50;9.30;;;6.33;;
14019;SDS011;7085;51.428;6.796;2022-12-07T08:35:17;11.03;;;7.13;;
14019;SDS011;7085;51.428;6.796;2022-12-07T08:37:44;7.20;;;6.20;;
14019;SDS011;7085;51.428;6.796;2022-12-07T08:40:13;9.00;;;6.73;;
14019;SDS011;7085;51.428;6.796;2022-12-07T08:42:41;10.10;;;6.53;;
14019;SDS011;7085;51.428;6.796;2022-12-07T08:45:10;8.40;;;6.80;;
14019;SDS011;7085;51.428;6.796;2022-12-07T08:47:38;9.60;;;6.70;;
14019;SDS011;7085;51.428;6.796;2022-12-07T08:50:07;7.63;;;6.20;;
14019;SDS011;7085;51.428;6.796;2022-12-07T08:52:35;12.53;;;7.27;;
14019;SDS011;7085;51.428;6.796;2022-12-07T08:55:02;8.87;;;6.03;;
14019;SDS011;7085;51.428;6.796;2022-12-07T08:57:31;8.97;;;6.03;;
14019;SDS011;7085;51.428;6.796;2022-12-07T08:59:59;8.23;;;6.00;;
14019;SDS011;7085;51.428;6.796;2022-12-07T09:02:26;9.20;;;5.93;;
14019;SDS011;7085;51.428;6.796;2022-12-07T09:04:53;10.57;;;5.87;;
14019;SDS011;7085;51.428;6.796;2022-12-07T09:07:20;6.13;;;4.97;;
14019;SDS011;7085;51.428;6.796;2022-12-07T09:09:47;10.53;;;5.73;;
14019;SDS011;7085;51.428;6.796;2022-12-07T09:12:14;6.63;;;5.23;;
14019;SDS011;7085;51.428;6.796;2022-12-07T09:14:42;8.33;;;6.27;;
14019;SDS011;7085;51.428;6.796;2022-12-07T09:17:10;10.07;;;5.80;;
14019;SDS011;7085;51.428;6.796;2022-12-07T09:19:37;7.60;;;5.20;;
14019;SDS011;7085;51.428;6.796;2022-12-07T09:22:06;8.57;;;5.87;;
14019;SDS011;7085;51.428;6.796;2022-12-07T09:24:33;6.30;;;4.93;;
14019;SDS011;7085;51.428;6.796;2022-12-07T09:27:00;12.53;;;6.20;;
14019;SDS011;7085;51.428;6.796;2022-12-07T09:29:27;11.97;;;5.27;;
14019;SDS011;7085;51.428;6.796;2022-12-07T09:31:56;8.80;;;5.17;;
14019;SDS011;7085;51.428;6.796;2022-12-07T09:34:23;8.13;;;5.07;;
14019;SDS011;7085;51.428;6.796;2022-12-07T09:36:51;7.30;;;4.95;;
14019;SDS011;7085;51.428;6.796;2022-12-07T09:39:18;11.70;;;5.07;;
14019;SDS011;7085;51.428;6.796;2022-12-07T09:41:45;9.70;;;5.17;;
14019;SDS011;7085;51.428;6.796;2022-12-07T09:44:13;8.07;;;5.20;;
14019;SDS011;7085;51.428;6.796;2022-12-07T09:46:41;5.80;;;4.63;;
14019;SDS011;7085;51.428;6.796;2022-12-07T09:49:11;11.00;;;5.30;;
14019;SDS011;7085;51.428;6.796;2022-12-07T09:51:39;11.13;;;5.23;;
14019;SDS011;7085;51.428;6.796;2022-12-07T09:54:06;11.73;;;5.40;;
14019;SDS011;7085;51.428;6.796;2022-12-07T09:56:35;5.57;;;4.90;;
14019;SDS011;7085;51.428;6.796;2022-12-07T09:59:02;9.30;;;3.97;;
14019;SDS011;7085;51.428;6.796;2022-12-07T10:01:30;4.93;;;4.22;;
14019;SDS011;7085;51.428;6.796;2022-12-07T10:03:59;6.75;;;4.20;;
14019;SDS011;7085;51.428;6.796;2022-12-07T10:06:29;5.28;;;3.58;;
14019;SDS011;7085;51.428;6.796;2022-12-07T10:08:56;6.13;;;3.75;;
14019;SDS011;7085;51.428;6.796;2022-12-07T10:11:23;6.70;;;4.00;;
14019;SDS011;7085;51.428;6.796;2022-12-07T10:13:51;3.45;;;3.15;;
14019;SDS011;7085;51.428;6.796;2022-12-07T10:16:38;6.85;;;3.45;;
14019;SDS011;7085;51.428;6.796;2022-12-07T10:19:17;4.25;;;3.20;;
14019;SDS011;7085;51.428;6.796;2022-12-07T10:22:00;5.55;;;3.00;;
14019;SDS011;7085;51.428;6.796;2022-12-07T10:24:27;3.25;;;2.95;;
14019;SDS011;7085;51.428;6.796;2022-12-07T10:26:54;7.82;;;3.55;;
14019;SDS011;7085;51.428;6.796;2022-12-07T10:29:22;5.20;;;3.97;;
14019;SDS011;7085;51.428;6.796;2022-12-07T10:31:51;6.05;;;2.90;;
14019;SDS011;7085;51.428;6.796;2022-12-07T10:34:20;4.28;;;2.55;;
14019;SDS011;7085;51.428;6.796;2022-12-07T10:36:49;6.15;;;3.00;;
14019;SDS011;7085;51.428;6.796;2022-12-07T10:39:17;5.93;;;2.75;;
14019;SDS011;7085;51.428;6.796;2022-12-07T10:41:55;4.25;;;3.30;;
14019;SDS011;7085;51.428;6.796;2022-12-07T10:44:23;5.32;;;3.58;;
14019;SDS011;7085;51.428;6.796;2022-12-07T10:46:56;3.92;;;3.13;;
14019;SDS011;7085;51.428;6.796;2022-12-07T10:52:29;5.27;;;3.23;;
14019;SDS011;7085;51.428;6.796;2022-12-07T10:55:05;4.33;;;3.03;;
14019;SDS011;7085;51.428;6.796;2022-12-07T10:57:40;3.70;;;2.97;;
14019;SDS011;7085;51.428;6.796;2022-12-07T11:00:13;5.50;;;3.15;;
14019;SDS011;7085;51.428;6.796;2022-12-07T11:02:46;3.65;;;2.47;;
14019;SDS011;7085;51.428;6.796;2022-12-07T11:05:17;4.63;;;3.10;;
14019;SDS011;7085;51.428;6.796;2022-12-07T11:07:49;8.98;;;3.30;;
14019;SDS011;7085;51.428;6.796;2022-12-07T11:10:21;8.53;;;3.13;;
14019;SDS011;7085;51.428;6.796;2022-12-07T11:12:56;3.20;;;2.80;;
14019;SDS011;7085;51.428;6.796;2022-12-07T11:15:28;5.40;;;2.93;;
14019;SDS011;7085;51.428;6.796;2022-12-07T11:17:57;9.37;;;3.70;;
14019;SDS011;7085;51.428;6.796;2022-12-07T11:20:29;8.63;;;3.20;;
14019;SDS011;7085;51.428;6.796;2022-12-07T11:23:03;3.33;;;3.00;;
14019;SDS011;7085;51.428;6.796;2022-12-07T11:25:34;5.67;;;3.23;;
14019;SDS011;7085;51.428;6.796;2022-12-07T11:28:09;6.13;;;2.90;;
14019;SDS011;7085;51.428;6.796;2022-12-07T11:30:40;3.60;;;2.87;;
14019;SDS011;7085;51.428;6.796;2022-12-07T11:33:15;3.50;;;3.03;;
14019;SDS011;7085;51.428;6.796;2022-12-07T11:35:45;6.40;;;3.03;;
14019;SDS011;7085;51.428;6.796;2022-12-07T11:38:15;4.47;;;2.78;;
14019;SDS011;7085;51.428;6.796;2022-12-07T11:40:44;8.67;;;3.10;;
14019;SDS011;7085;51.428;6.796;2022-12-07T11:43:15;5.40;;;3.00;;
14019;SDS011;7085;51.428;6.796;2022-12-07T11:45:45;5.93;;;2.70;;
14019;SDS011;7085;51.428;6.796;2022-12-07T11:48:14;5.07;;;2.87;;
14019;SDS011;7085;51.428;6.796;2022-12-07T11:50:43;2.90;;;2.60;;
14019;SDS011;7085;51.428;6.796;2022-12-07T11:53:10;7.33;;;2.80;;
14019;SDS011;7085;51.428;6.796;2022-12-07T11:55:42;4.50;;;2.60;;
14019;SDS011;7085;51.428;6.796;2022-12-07T11:58:18;8.37;;;3.63;;
14019;SDS011;7085;51.428;6.796;2022-12-07T12:00:46;6.07;;;2.53;;
14019;SDS011;7085;51.428;6.796;2022-12-07T12:03:15;4.70;;;2.80;;
14019;SDS011;7085;51.428;6.796;2022-12-07T12:05:42;6.00;;;2.70;;
14019;SDS011;7085;51.428;6.796;2022-12-07T12:08:12;4.73;;;2.87;;
14019;SDS011;7085;51.428;6.796;2022-12-07T12:10:42;5.60;;;2.87;;
14019;SDS011;7085;51.428;6.796;2022-12-07T12:16:01;5.03;;;2.90;;
14019;SDS011;7085;51.428;6.796;2022-12-07T12:18:37;7.33;;;3.27;;
14019;SDS011;7085;51.428;6.796;2022-12-07T12:21:07;5.27;;;2.73;;
14019;SDS011;7085;51.428;6.796;2022-12-07T12:23:36;4.87;;;3.13;;
14019;SDS011;7085;51.428;6.796;2022-12-07T12:26:06;9.30;;;4.47;;
14019;SDS011;7085;51.428;6.796;2022-12-07T12:28:35;5.23;;;3.23;;
14019;SDS011;7085;51.428;6.796;2022-12-07T12:31:07;7.47;;;2.90;;
14019;SDS011;7085;51.428;6.796;2022-12-07T12:33:36;3.17;;;2.20;;
14019;SDS011;7085;51.428;6.796;2022-12-07T12:36:16;3.17;;;2.60;;
14019;SDS011;7085;51.428;6.796;2022-12-07T12:38:50;6.80;;;2.40;;
14019;SDS011;7085;51.428;6.796;2022-12-07T12:50:18;8.97;;;2.80;;
14019;SDS011;7085;51.428;6.796;2022-12-07T12:52:50;11.87;;;2.87;;
14019;SDS011;7085;51.428;6.796;2022-12-07T12:58:28;3.23;;;1.97;;
14019;SDS011;7085;51.428;6.796;2022-12-07T13:03:45;3.00;;;1.80;;
14019;SDS011;7085;51.428;6.796;2022-12-07T13:06:29;3.43;;;2.17;;
14019;SDS011;7085;51.428;6.796;2022-12-07T13:08:58;4.53;;;2.50;;
14019;SDS011;7085;51.428;6.796;2022-12-07T13:11:27;2.37;;;2.17;;
14019;SDS011;7085;51.428;6.796;2022-12-07T13:16:39;5.53;;;2.40;;
14019;SDS011;7085;51.428;6.796;2022-12-07T13:21:54;2.97;;;1.97;;
14019;SDS011;7085;51.428;6.796;2022-12-07T13:24:21;5.40;;;2.60;;
14019;SDS011;7085;51.428;6.796;2022-12-07T13:26:48;6.47;;;2.50;;
14019;SDS011;7085;51.428;6.796;2022-12-07T13:29:16;6.37;;;2.33;;
14019;SDS011;7085;51.428;6.796;2022-12-07T13:31:45;5.18;;;2.85;;
14019;SDS011;7085;51.428;6.796;2022-12-07T13:36:57;2.60;;;2.30;;
14019;SDS011;7085;51.428;6.796;2022-12-07T13:39:25;6.77;;;2.90;;
14019;SDS011;7085;51.428;6.796;2022-12-07T13:41:53;5.10;;;2.70;;
14019;SDS011;7085;51.428;6.796;2022-12-07T13:44:21;7.00;;;2.60;;
14019;SDS011;7085;51.428;6.796;2022-12-07T13:46:51;6.13;;;2.73;;
14019;SDS011;7085;51.428;6.796;2022-12-07T13:49:21;4.10;;;2.80;;
14019;SDS011;7085;51.428;6.796;2022-12-07T13:51:49;4.33;;;2.60;;
14019;SDS011;7085;51.428;6.796;2022-12-07T13:54:17;11.03;;;3.73;;
14019;SDS011;7085;51.428;6.796;2022-12-07T13:56:47;2.90;;;2.60;;
14019;SDS011;7085;51.428;6.796;2022-12-07T13:59:15;4.47;;;2.50;;
14019;SDS011;7085;51.428;6.796;2022-12-07T14:01:43;8.27;;;3.33;;
14019;SDS011;7085;51.428;6.796;2022-12-07T14:04:18;4.47;;;2.27;;
14019;SDS011;7085;51.428;6.796;2022-12-07T14:06:49;10.93;;;2.53;;
14019;SDS011;7085;51.428;6.796;2022-12-07T14:09:18;5.53;;;2.30;;
14019;SDS011;7085;51.428;6.796;2022-12-07T14:11:47;2.50;;;1.97;;
14019;SDS011;7085;51.428;6.796;2022-12-07T14:14:16;5.40;;;2.40;;
14019;SDS011;7085;51.428;6.796;2022-12-07T14:16:45;5.07;;;2.40;;
14019;SDS011;7085;51.428;6.796;2022-12-07T14:22:07;4.43;;;2.30;;
14019;SDS011;7085;51.428;6.796;2022-12-07T14:24:42;2.43;;;1.87;;
14019;SDS011;7085;51.428;6.796;2022-12-07T14:27:16;5.73;;;2.00;;
14019;SDS011;7085;51.428;6.796;2022-12-07T14:29:43;6.47;;;1.67;;
14019;SDS011;7085;51.428;6.796;2022-12-07T14:32:21;4.87;;;2.70;;
14019;SDS011;7085;51.428;6.796;2022-12-07T14:34:53;3.87;;;3.00;;
14019;SDS011;7085;51.428;6.796;2022-12-07T14:37:20;6.20;;;3.87;;
14019;SDS011;7085;51.428;6.796;2022-12-07T14:39:48;12.77;;;6.10;;
14019;SDS011;7085;51.428;6.796;2022-12-07T14:42:16;7.27;;;3.03;;
14019;SDS011;7085;51.428;6.796;2022-12-07T14:44:43;8.50;;;3.20;;
14019;SDS011;7085;51.428;6.796;2022-12-07T14:47:10;5.37;;;2.33;;
14019;SDS011;7085;51.428;6.796;2022-12-07T14:49:37;6.30;;;2.40;;
14019;SDS011;7085;51.428;6.796;2022-12-07T14:52:05;7.07;;;2.53;;
14019;SDS011;7085;51.428;6.796;2022-12-07T14:54:33;4.00;;;2.40;;
14019;SDS011;7085;51.428;6.796;2022-12-07T14:57:01;4.90;;;2.70;;
14019;SDS011;7085;51.428;6.796;2022-12-07T14:59:28;4.17;;;2.47;;
14019;SDS011;7085;51.428;6.796;2022-12-07T15:01:55;5.90;;;2.40;;
14019;SDS011;7085;51.428;6.796;2022-12-07T15:04:22;9.60;;;2.53;;
14019;SDS011;7085;51.428;6.796;2022-12-07T15:06:56;5.17;;;2.60;;
14019;SDS011;7085;51.428;6.796;2022-12-07T15:09:34;7.93;;;3.30;;
14019;SDS011;7085;51.428;6.796;2022-12-07T15:12:02;5.47;;;2.78;;
14019;SDS011;7085;51.428;6.796;2022-12-07T15:14:29;5.73;;;2.70;;
14019;SDS011;7085;51.428;6.796;2022-12-07T15:16:56;6.90;;;2.80;;
14019;SDS011;7085;51.428;6.796;2022-12-07T15:19:24;6.57;;;3.93;;
14019;SDS011;7085;51.428;6.796;2022-12-07T15:21:52;6.10;;;3.37;;
14019;SDS011;7085;51.428;6.796;2022-12-07T15:24:19;5.77;;;4.20;;
14019;SDS011;7085;51.428;6.796;2022-12-07T15:26:49;14.83;;;6.00;;
14019;SDS011;7085;51.428;6.796;2022-12-07T15:29:17;14.13;;;7.90;;
14019;SDS011;7085;51.428;6.796;2022-12-07T15:31:45;13.40;;;6.67;;
14019;SDS011;7085;51.428;6.796;2022-12-07T15:34:12;8.57;;;4.87;;
14019;SDS011;7085;51.428;6.796;2022-12-07T15:36:39;5.77;;;4.17;;